sensor_id;sensor_type;location;lat;lon;timestamp;pressure;altitude;pressure_sealevel;temperature;humidity
69622;BME280;56841;55.964;37.674;2023-08-30T00:00:14;99408.97;;;15.72;100.00
69622;BME280;56841;55.964;37.674;2023-08-30T00:02:40;99403.88;;;15.71;100.00
69622;BME280;56841;55.964;37.674;2023-08-30T00:05:07;99408.16;;;15.72;100.00
69622;BME280;56841;55.964;37.674;2023-08-30T00:07:32;99412.88;;;15.70;100.00
69622;BME280;56841;55.964;37.674;2023-08-30T00:09:58;99416.56;;;15.69;100.00
69622;BME280;56841;55.964;37.674;2023-08-30T00:12:25;99410.78;;;15.65;100.00
69622;BME280;56841;55.964;37.674;2023-08-30T00:14:51;99411.63;;;15.59;100.00
69622;BME280;56841;55.964;37.674;2023-08-30T00:17:17;99416.53;;;15.62;100.00
69622;BME280;56841;55.964;37.674;2023-08-30T00:19:42;99405.47;;;15.58;100.00
69622;BME280;56841;55.964;37.674;2023-08-30T00:22:08;99404.88;;;15.63;100.00
69622;BME280;56841;55.964;37.674;2023-08-30T00:24:34;99414.28;;;15.59;100.00
69622;BME280;56841;55.964;37.674;2023-08-30T00:27:01;99405.47;;;15.58;100.00
69622;BME280;56841;55.964;37.674;2023-08-30T00:29:28;99399.75;;;15.55;100.00
69622;BME280;56841;55.964;37.674;2023-08-30T00:31:54;99409.97;;;15.51;100.00
69622;BME280;56841;55.964;37.674;2023-08-30T00:34:20;99413.88;;;15.49;100.00
69622;BME280;56841;55.964;37.674;2023-08-30T00:36:46;99412.63;;;15.45;100.00
69622;BME280;56841;55.964;37.674;2023-08-30T00:39:11;99413.88;;;15.49;100.00
69622;BME280;56841;55.964;37.674;2023-08-30T00:41:40;99418.38;;;15.55;100.00
69622;BME280;56841;55.964;37.674;2023-08-30T00:44:06;99417.16;;;15.57;100.00
69622;BME280;56841;55.964;37.674;2023-08-30T00:46:33;99416.75;;;15.54;100.00
69622;BME280;56841;55.964;37.674;2023-08-30T00:49:00;99423.09;;;15.46;100.00
69622;BME280;56841;55.964;37.674;2023-08-30T00:51:27;99428.81;;;15.43;100.00
69622;BME280;56841;55.964;37.674;2023-08-30T00:53:54;99430.66;;;15.43;100.00
69622;BME280;56841;55.964;37.674;2023-08-30T00:56:21;99421.03;;;15.41;100.00
69622;BME280;56841;55.964;37.674;2023-08-30T00:58:48;99435.34;;;15.40;100.00
69622;BME280;56841;55.964;37.674;2023-08-30T01:01:15;99425.34;;;15.43;100.00
69622;BME280;56841;55.964;37.674;2023-08-30T01:03:41;99433.31;;;15.43;100.00
69622;BME280;56841;55.964;37.674;2023-08-30T01:06:07;99430.44;;;15.37;100.00
69622;BME280;56841;55.964;37.674;2023-08-30T01:08:34;99431.47;;;15.30;100.00
69622;BME280;56841;55.964;37.674;2023-08-30T01:11:19;99436.38;;;15.33;100.00
69622;BME280;56841;55.964;37.674;2023-08-30T01:13:56;99434.75;;;15.32;100.00
69622;BME280;56841;55.964;37.674;2023-08-30T01:16:22;99440.66;;;15.34;100.00
69622;BME280;56841;55.964;37.674;2023-08-30T01:18:56;99429.44;;;15.32;100.00
69622;BME280;56841;55.964;37.674;2023-08-30T01:21:50;99434.53;;;15.33;100.00
69622;BME280;56841;55.964;37.674;2023-08-30T01:25:07;99438.41;;;15.31;100.00
69622;BME280;56841;55.964;37.674;2023-08-30T01:27:35;99441.69;;;15.26;100.00
69622;BME280;56841;55.964;37.674;2023-08-30T01:30:05;99438.78;;;15.21;100.00
69622;BME280;56841;55.964;37.674;2023-08-30T01:32:34;99436.75;;;15.16;100.00
69622;BME280;56841;55.964;37.674;2023-08-30T01:35:02;99435.94;;;15.16;100.00
69622;BME280;56841;55.964;37.674;2023-08-30T01:37:31;99440.03;;;15.12;100.00
69622;BME280;56841;55.964;37.674;2023-08-30T01:39:58;99449.00;;;15.11;100.00
69622;BME280;56841;55.964;37.674;2023-08-30T01:42:26;99449.00;;;15.11;100.00
69622;BME280;56841;55.964;37.674;2023-08-30T01:44:55;99440.59;;;15.07;100.00
69622;BME280;56841;55.964;37.674;2023-08-30T01:47:25;99449.44;;;15.08;100.00
69622;BME280;56841;55.964;37.674;2023-08-30T01:49:53;99447.59;;;15.08;100.00
69622;BME280;56841;55.964;37.674;2023-08-30T01:52:20;99449.63;;;15.13;100.00
69622;BME280;56841;55.964;37.674;2023-08-30T01:54:47;99451.06;;;15.15;100.00
69622;BME280;56841;55.964;37.674;2023-08-30T01:57:13;99440.84;;;15.12;100.00
69622;BME280;56841;55.964;37.674;2023-08-30T01:59:39;99447.19;;;15.18;100.00
69622;BME280;56841;55.964;37.674;2023-08-30T02:02:05;99446.16;;;15.12;100.00
69622;BME280;56841;55.964;37.674;2023-08-30T02:04:31;99448.19;;;15.17;100.00
69622;BME280;56841;55.964;37.674;2023-08-30T02:07:04;99448.19;;;15.10;100.00
69622;BME280;56841;55.964;37.674;2023-08-30T02:09:36;99448.00;;;15.12;100.00
69622;BME280;56841;55.964;37.674;2023-08-30T02:12:10;99449.44;;;15.08;100.00
69622;BME280;56841;55.964;37.674;2023-08-30T02:14:39;99456.00;;;15.19;100.00
69622;BME280;56841;55.964;37.674;2023-08-30T02:17:07;99443.94;;;15.23;100.00
69622;BME280;56841;55.964;37.674;2023-08-30T02:19:33;99442.09;;;15.23;100.00
69622;BME280;56841;55.964;37.674;2023-08-30T02:21:59;99438.59;;;15.09;100.00
69622;BME280;56841;55.964;37.674;2023-08-30T02:24:25;99443.31;;;15.21;100.00
69622;BME280;56841;55.964;37.674;2023-08-30T02:26:51;99444.97;;;15.22;100.00
69622;BME280;56841;55.964;37.674;2023-08-30T02:29:16;99447.22;;;15.25;100.00
69622;BME280;56841;55.964;37.674;2023-08-30T02:31:42;99451.09;;;15.22;100.00
69622;BME280;56841;55.964;37.674;2023-08-30T02:34:09;99448.19;;;15.17;100.00
69622;BME280;56841;55.964;37.674;2023-08-30T02:36:36;99453.09;;;15.13;100.00
69622;BME280;56841;55.964;37.674;2023-08-30T02:39:02;99464.53;;;15.07;100.00
69622;BME280;56841;55.964;37.674;2023-08-30T02:41:29;99469.25;;;15.05;100.00
69622;BME280;56841;55.964;37.674;2023-08-30T02:43:55;99472.50;;;15.01;100.00
69622;BME280;56841;55.964;37.674;2023-08-30T02:46:20;99471.91;;;14.99;100.00
69622;BME280;56841;55.964;37.674;2023-08-30T02:48:46;99473.06;;;14.89;100.00
69622;BME280;56841;55.964;37.674;2023-08-30T02:51:12;99469.84;;;14.94;100.00
69622;BME280;56841;55.964;37.674;2023-08-30T02:53:38;99477.59;;;14.96;100.00
69622;BME280;56841;55.964;37.674;2023-08-30T02:56:03;99478.84;;;15.00;100.00
69622;BME280;56841;55.964;37.674;2023-08-30T02:58:29;99477.00;;;15.00;100.00
69622;BME280;56841;55.964;37.674;2023-08-30T03:00:59;99470.69;;;15.01;100.00
69622;BME280;56841;55.964;37.674;2023-08-30T03:03:25;99467.81;;;15.03;100.00
69622;BME280;56841;55.964;37.674;2023-08-30T03:05:52;99470.28;;;15.04;100.00
69622;BME280;56841;55.964;37.674;2023-08-30T03:08:18;99464.97;;;15.04;100.00
69622;BME280;56841;55.964;37.674;2023-08-30T03:10:44;99464.97;;;15.04;100.00
69622;BME280;56841;55.964;37.674;2023-08-30T03:13:11;99469.25;;;15.05;100.00
69622;BME280;56841;55.964;37.674;2023-08-30T03:15:37;99470.88;;;15.06;100.00
69622;BME280;56841;55.964;37.674;2023-08-30T03:18:03;99476.44;;;15.11;100.00
69622;BME280;56841;55.964;37.674;2023-08-30T03:20:29;99465.41;;;15.14;100.00
69622;BME280;56841;55.964;37.674;2023-08-30T03:22:58;99459.88;;;15.16;100.00
69622;BME280;56841;55.964;37.674;2023-08-30T03:25:24;99461.72;;;15.15;100.00
69622;BME280;56841;55.964;37.674;2023-08-30T03:27:50;99462.94;;;15.20;100.00
69622;BME280;56841;55.964;37.674;2023-08-30T03:30:16;99465.00;;;15.24;100.00
69622;BME280;56841;55.964;37.674;2023-08-30T03:32:42;99464.59;;;15.27;100.00
69622;BME280;56841;55.964;37.674;2023-08-30T03:35:08;99468.06;;;15.21;100.00
69622;BME280;56841;55.964;37.674;2023-08-30T03:37:34;99465.00;;;15.24;100.00
69622;BME280;56841;55.964;37.674;2023-08-30T03:40:01;99477.66;;;15.15;100.00
69622;BME280;56841;55.964;37.674;2023-08-30T03:42:29;99467.44;;;15.12;100.00
69622;BME280;56841;55.964;37.674;2023-08-30T03:44:55;99467.44;;;15.19;100.00
69622;BME280;56841;55.964;37.674;2023-08-30T03:47:21;99467.41;;;15.06;100.00
69622;BME280;56841;55.964;37.674;2023-08-30T03:49:46;99464.56;;;15.21;100.00
69622;BME280;56841;55.964;37.674;2023-08-30T03:52:13;99466.63;;;15.19;100.00
69622;BME280;56841;55.964;37.674;2023-08-30T03:54:39;99475.59;;;15.11;100.00
69622;BME280;56841;55.964;37.674;2023-08-30T03:57:04;99471.94;;;15.19;100.00
69622;BME280;56841;55.964;37.674;2023-08-30T03:59:30;99473.38;;;15.21;100.00
69622;BME280;56841;55.964;37.674;2023-08-30T04:01:56;99475.03;;;15.22;100.00
69622;BME280;56841;55.964;37.674;2023-08-30T04:04:21;99469.31;;;15.25;100.00
69622;BME280;56841;55.964;37.674;2023-08-30T04:06:47;99475.66;;;15.31;100.00
69622;BME280;56841;55.964;37.674;2023-08-30T04:09:16;99481.78;;;15.38;100.00
69622;BME280;56841;55.964;37.674;2023-08-30T04:11:43;99478.31;;;15.37;100.00
69622;BME280;56841;55.964;37.674;2023-08-30T04:14:10;99482.66;;;15.38;100.00
69622;BME280;56841;55.964;37.674;2023-08-30T04:16:36;99479.38;;;15.43;100.00
69622;BME280;56841;55.964;37.674;2023-08-30T04:19:02;99490.84;;;15.50;100.00
69622;BME280;56841;55.964;37.674;2023-08-30T04:21:28;99481.63;;;15.53;100.00
69622;BME280;56841;55.964;37.674;2023-08-30T04:23:54;99483.06;;;15.62;100.00
69622;BME280;56841;55.964;37.674;2023-08-30T04:26:21;99478.59;;;15.62;100.00
69622;BME280;56841;55.964;37.674;2023-08-30T04:28:46;99478.34;;;15.57;100.00
69622;BME280;56841;55.964;37.674;2023-08-30T04:31:12;99477.75;;;15.49;100.00
69622;BME280;56841;55.964;37.674;2023-08-30T04:33:39;99481.00;;;15.51;100.00
69622;BME280;56841;55.964;37.674;2023-08-30T04:36:05;99480.59;;;15.54;100.00
69622;BME280;56841;55.964;37.674;2023-08-30T04:38:32;99488.81;;;15.59;100.00
69622;BME280;56841;55.964;37.674;2023-08-30T04:40:58;99489.88;;;15.71;100.00
69622;BME280;56841;55.964;37.674;2023-08-30T04:43:31;99486.59;;;15.82;100.00
69622;BME280;56841;55.964;37.674;2023-08-30T04:45:57;99489.88;;;15.91;100.00
69622;BME280;56841;55.964;37.674;2023-08-30T04:48:23;99483.31;;;15.87;100.00
69622;BME280;56841;55.964;37.674;2023-08-30T04:51:01;99480.25;;;16.03;100.00
69622;BME280;56841;55.964;37.674;2023-08-30T04:53:27;99480.84;;;16.05;99.29
69622;BME280;56841;55.964;37.674;2023-08-30T04:55:53;99488.84;;;16.05;99.70
69622;BME280;56841;55.964;37.674;2023-08-30T04:58:19;99483.91;;;16.09;100.00
69622;BME280;56841;55.964;37.674;2023-08-30T05:00:45;99481.47;;;16.14;98.75
69622;BME280;56841;55.964;37.674;2023-08-30T05:03:11;99492.72;;;16.23;99.19
69622;BME280;56841;55.964;37.674;2023-08-30T05:05:37;99486.16;;;16.12;98.73
69622;BME280;56841;55.964;37.674;2023-08-30T05:08:03;99486.78;;;16.07;99.80
69622;BME280;56841;55.964;37.674;2023-08-30T05:10:32;99476.75;;;16.09;100.00
69622;BME280;56841;55.964;37.674;2023-08-30T05:12:57;99477.75;;;16.35;99.67
69622;BME280;56841;55.964;37.674;2023-08-30T05:15:23;99475.69;;;16.30;97.94
69622;BME280;56841;55.964;37.674;2023-08-30T05:17:49;99487.16;;;16.38;98.70
69622;BME280;56841;55.964;37.674;2023-08-30T05:20:15;99480.19;;;16.30;97.54
69622;BME280;56841;55.964;37.674;2023-08-30T05:22:41;99480.56;;;16.47;96.56
69622;BME280;56841;55.964;37.674;2023-08-30T05:25:07;99480.78;;;16.45;96.17
69622;BME280;56841;55.964;37.674;2023-08-30T05:27:32;99473.75;;;16.57;94.33
69622;BME280;56841;55.964;37.674;2023-08-30T05:29:58;99472.34;;;16.62;92.92
69622;BME280;56841;55.964;37.674;2023-08-30T05:32:24;99484.41;;;16.64;93.08
69622;BME280;56841;55.964;37.674;2023-08-30T05:35:22;99468.84;;;16.54;94.57
69622;BME280;56841;55.964;37.674;2023-08-30T05:38:03;99454.69;;;16.61;94.21
69622;BME280;56841;55.964;37.674;2023-08-30T05:40:49;99467.81;;;16.62;93.67
69622;BME280;56841;55.964;37.674;2023-08-30T05:43:14;99466.16;;;16.74;92.78
69622;BME280;56841;55.964;37.674;2023-08-30T05:45:42;99479.72;;;16.59;92.33
69622;BME280;56841;55.964;37.674;2023-08-30T05:48:07;99487.69;;;16.66;92.10
69622;BME280;56841;55.964;37.674;2023-08-30T05:50:33;99484.38;;;16.71;92.71
69622;BME280;56841;55.964;37.674;2023-08-30T05:52:59;99479.47;;;16.81;91.99
69622;BME280;56841;55.964;37.674;2023-08-30T05:55:25;99490.53;;;16.85;90.41
69622;BME280;56841;55.964;37.674;2023-08-30T05:57:51;99486.16;;;16.97;89.71
69622;BME280;56841;55.964;37.674;2023-08-30T06:00:17;99479.16;;;17.02;88.86
69622;BME280;56841;55.964;37.674;2023-08-30T06:02:43;99486.69;;;17.12;88.34
69622;BME280;56841;55.964;37.674;2023-08-30T06:05:10;99487.88;;;17.23;87.33
69622;BME280;56841;55.964;37.674;2023-08-30T06:07:36;99495.88;;;17.23;87.67
69622;BME280;56841;55.964;37.674;2023-08-30T06:10:01;99491.34;;;17.30;87.63
69622;BME280;56841;55.964;37.674;2023-08-30T06:12:30;99499.50;;;17.35;86.37
69622;BME280;56841;55.964;37.674;2023-08-30T06:14:55;99506.72;;;17.35;85.68
69622;BME280;56841;55.964;37.674;2023-08-30T06:17:21;99502.44;;;17.27;87.09
69622;BME280;56841;55.964;37.674;2023-08-30T06:19:47;99500.13;;;17.37;86.92
69622;BME280;56841;55.964;37.674;2023-08-30T06:22:13;99496.69;;;17.30;85.77
69622;BME280;56841;55.964;37.674;2023-08-30T06:24:39;99495.06;;;17.22;87.28
69622;BME280;56841;55.964;37.674;2023-08-30T06:27:05;99502.81;;;17.37;86.69
69622;BME280;56841;55.964;37.674;2023-08-30T06:29:31;99505.81;;;17.47;84.76
69622;BME280;56841;55.964;37.674;2023-08-30T06:31:58;99497.75;;;17.54;84.14
69622;BME280;56841;55.964;37.674;2023-08-30T06:34:24;99488.47;;;17.57;84.21
69622;BME280;56841;55.964;37.674;2023-08-30T06:36:50;99489.47;;;17.62;83.62
69622;BME280;56841;55.964;37.674;2023-08-30T06:39:17;99482.91;;;17.65;84.93
69622;BME280;56841;55.964;37.674;2023-08-30T06:41:43;99490.00;;;17.77;83.78
69622;BME280;56841;55.964;37.674;2023-08-30T06:44:13;99496.53;;;17.88;82.95
69622;BME280;56841;55.964;37.674;2023-08-30T06:46:39;99510.41;;;17.97;81.79
69622;BME280;56841;55.964;37.674;2023-08-30T06:49:05;99507.38;;;18.12;80.72
69622;BME280;56841;55.964;37.674;2023-08-30T06:51:31;99503.97;;;18.05;80.52
69622;BME280;56841;55.964;37.674;2023-08-30T06:53:57;99499.47;;;18.05;78.85
69622;BME280;56841;55.964;37.674;2023-08-30T06:56:26;99503.38;;;18.03;79.38
69622;BME280;56841;55.964;37.674;2023-08-30T06:58:52;99511.53;;;17.83;79.97
69622;BME280;56841;55.964;37.674;2023-08-30T07:01:18;99513.66;;;17.67;81.27
69622;BME280;56841;55.964;37.674;2023-08-30T07:03:44;99502.13;;;17.73;82.10
69622;BME280;56841;55.964;37.674;2023-08-30T07:06:10;99508.28;;;17.74;81.95
69622;BME280;56841;55.964;37.674;2023-08-30T07:08:36;99510.41;;;17.65;82.46
69622;BME280;56841;55.964;37.674;2023-08-30T07:11:02;99517.56;;;17.71;82.95
69622;BME280;56841;55.964;37.674;2023-08-30T07:13:28;99517.75;;;17.76;82.47
69622;BME280;56841;55.964;37.674;2023-08-30T07:15:54;99515.25;;;17.82;81.96
69622;BME280;56841;55.964;37.674;2023-08-30T07:18:20;99515.09;;;17.70;81.56
69622;BME280;56841;55.964;37.674;2023-08-30T07:20:46;99512.22;;;17.78;81.76
69622;BME280;56841;55.964;37.674;2023-08-30T07:23:13;99510.78;;;18.00;80.88
69622;BME280;56841;55.964;37.674;2023-08-30T07:25:39;99510.72;;;18.07;78.97
69622;BME280;56841;55.964;37.674;2023-08-30T07:28:05;99507.88;;;18.27;78.38
69622;BME280;56841;55.964;37.674;2023-08-30T07:30:32;99497.38;;;18.51;77.44
69622;BME280;56841;55.964;37.674;2023-08-30T07:32:58;99499.19;;;18.75;76.56
69622;BME280;56841;55.964;37.674;2023-08-30T07:35:24;99498.94;;;18.77;75.57
69622;BME280;56841;55.964;37.674;2023-08-30T07:37:50;99498.50;;;18.80;76.21
69622;BME280;56841;55.964;37.674;2023-08-30T07:40:16;99494.72;;;18.87;75.91
69622;BME280;56841;55.964;37.674;2023-08-30T07:42:41;99507.25;;;18.87;76.24
69622;BME280;56841;55.964;37.674;2023-08-30T07:45:08;99516.97;;;19.00;75.60
69622;BME280;56841;55.964;37.674;2023-08-30T07:47:34;99521.22;;;19.07;75.09
69622;BME280;56841;55.964;37.674;2023-08-30T07:50:07;99519.75;;;19.11;74.94
69622;BME280;56841;55.964;37.674;2023-08-30T07:52:32;99522.38;;;19.30;74.11
69622;BME280;56841;55.964;37.674;2023-08-30T07:54:58;99529.88;;;19.51;72.67
69622;BME280;56841;55.964;37.674;2023-08-30T07:57:24;99520.59;;;19.54;72.25
69622;BME280;56841;55.964;37.674;2023-08-30T07:59:50;99525.25;;;19.58;71.62
69622;BME280;56841;55.964;37.674;2023-08-30T08:02:15;99526.53;;;19.56;70.95
69622;BME280;56841;55.964;37.674;2023-08-30T08:04:41;99523.63;;;19.57;70.60
69622;BME280;56841;55.964;37.674;2023-08-30T08:07:08;99531.22;;;19.30;71.61
69622;BME280;56841;55.964;37.674;2023-08-30T08:09:34;99529.22;;;19.07;71.43
69622;BME280;56841;55.964;37.674;2023-08-30T08:11:59;99525.47;;;18.78;71.86
69622;BME280;56841;55.964;37.674;2023-08-30T08:14:26;99531.53;;;19.04;71.97
69622;BME280;56841;55.964;37.674;2023-08-30T08:16:52;99525.28;;;19.28;70.64
69622;BME280;56841;55.964;37.674;2023-08-30T08:19:18;99538.44;;;19.30;71.08
69622;BME280;56841;55.964;37.674;2023-08-30T08:21:46;99528.44;;;19.37;71.02
69622;BME280;56841;55.964;37.674;2023-08-30T08:24:11;99539.16;;;19.37;70.26
69622;BME280;56841;55.964;37.674;2023-08-30T08:26:37;99547.88;;;19.32;70.33
69622;BME280;56841;55.964;37.674;2023-08-30T08:29:03;99543.59;;;19.43;69.26
69622;BME280;56841;55.964;37.674;2023-08-30T08:31:29;99546.38;;;19.36;71.15
69622;BME280;56841;55.964;37.674;2023-08-30T08:34:11;99548.97;;;19.43;70.31
69622;BME280;56841;55.964;37.674;2023-08-30T08:36:38;99550.41;;;19.87;69.13
69622;BME280;56841;55.964;37.674;2023-08-30T08:39:06;99545.31;;;20.09;67.23
69622;BME280;56841;55.964;37.674;2023-08-30T08:41:40;99547.41;;;20.07;66.88
69622;BME280;56841;55.964;37.674;2023-08-30T08:44:08;99547.56;;;20.59;66.93
69622;BME280;56841;55.964;37.674;2023-08-30T08:46:39;99549.44;;;20.59;66.18
69622;BME280;56841;55.964;37.674;2023-08-30T08:49:11;99554.78;;;20.71;65.32
69622;BME280;56841;55.964;37.674;2023-08-30T08:51:40;99554.31;;;20.86;64.36
69622;BME280;56841;55.964;37.674;2023-08-30T08:54:06;99551.94;;;21.29;62.33
69622;BME280;56841;55.964;37.674;2023-08-30T08:56:32;99548.97;;;21.14;62.09
69622;BME280;56841;55.964;37.674;2023-08-30T08:59:01;99549.78;;;21.15;61.78
69622;BME280;56841;55.964;37.674;2023-08-30T09:01:27;99549.94;;;21.08;62.40
69622;BME280;56841;55.964;37.674;2023-08-30T09:03:54;99545.75;;;20.89;63.30
69622;BME280;56841;55.964;37.674;2023-08-30T09:06:21;99551.41;;;20.75;63.52
69622;BME280;56841;55.964;37.674;2023-08-30T09:08:47;99547.19;;;20.79;63.33
69622;BME280;56841;55.964;37.674;2023-08-30T09:11:13;99558.84;;;20.50;64.28
69622;BME280;56841;55.964;37.674;2023-08-30T09:13:39;99555.25;;;20.68;64.24
69622;BME280;56841;55.964;37.674;2023-08-30T09:16:14;99554.34;;;20.62;63.17
69622;BME280;56841;55.964;37.674;2023-08-30T09:18:43;99558.63;;;20.87;61.99
69622;BME280;56841;55.964;37.674;2023-08-30T09:21:10;99560.78;;;21.13;60.74
69622;BME280;56841;55.964;37.674;2023-08-30T09:23:37;99563.81;;;21.17;60.96
69622;BME280;56841;55.964;37.674;2023-08-30T09:26:04;99565.88;;;21.26;60.13
69622;BME280;56841;55.964;37.674;2023-08-30T09:28:31;99560.31;;;21.04;61.14
69622;BME280;56841;55.964;37.674;2023-08-30T09:30:59;99556.91;;;20.57;62.91
69622;BME280;56841;55.964;37.674;2023-08-30T09:33:30;99560.16;;;20.59;62.46
69622;BME280;56841;55.964;37.674;2023-08-30T09:35:59;99554.81;;;20.59;62.81
69622;BME280;56841;55.964;37.674;2023-08-30T09:38:26;99563.34;;;21.20;61.36
69622;BME280;56841;55.964;37.674;2023-08-30T09:41:05;99561.88;;;21.41;60.35
69622;BME280;56841;55.964;37.674;2023-08-30T09:43:32;99567.03;;;21.30;60.12
69622;BME280;56841;55.964;37.674;2023-08-30T09:46:05;99559.72;;;21.14;60.53
69622;BME280;56841;55.964;37.674;2023-08-30T09:48:32;99562.13;;;21.27;60.29
69622;BME280;56841;55.964;37.674;2023-08-30T09:50:58;99566.91;;;21.25;59.58
69622;BME280;56841;55.964;37.674;2023-08-30T09:53:26;99563.88;;;21.34;59.22
69622;BME280;56841;55.964;37.674;2023-08-30T09:55:55;99568.72;;;21.08;60.60
69622;BME280;56841;55.964;37.674;2023-08-30T09:58:22;99575.50;;;21.11;61.12
69622;BME280;56841;55.964;37.674;2023-08-30T10:00:49;99571.72;;;21.23;61.43
69622;BME280;56841;55.964;37.674;2023-08-30T10:03:19;99573.66;;;21.40;61.36
69622;BME280;56841;55.964;37.674;2023-08-30T10:05:45;99581.97;;;21.38;60.04
69622;BME280;56841;55.964;37.674;2023-08-30T10:08:13;99583.94;;;21.43;59.65
69622;BME280;56841;55.964;37.674;2023-08-30T10:10:39;99592.94;;;21.37;59.85
69622;BME280;56841;55.964;37.674;2023-08-30T10:13:06;99596.94;;;21.63;58.69
69622;BME280;56841;55.964;37.674;2023-08-30T10:15:33;99594.97;;;21.18;60.37
69622;BME280;56841;55.964;37.674;2023-08-30T10:18:02;99588.50;;;21.30;61.04
69622;BME280;56841;55.964;37.674;2023-08-30T10:20:29;99582.41;;;20.71;61.76
69622;BME280;56841;55.964;37.674;2023-08-30T10:22:57;99578.91;;;21.06;61.86
69622;BME280;56841;55.964;37.674;2023-08-30T10:25:26;99580.72;;;21.17;60.98
69622;BME280;56841;55.964;37.674;2023-08-30T10:27:53;99566.63;;;21.50;59.98
69622;BME280;56841;55.964;37.674;2023-08-30T10:30:21;99576.13;;;21.41;60.68
69622;BME280;56841;55.964;37.674;2023-08-30T10:32:47;99580.97;;;21.56;60.59
69622;BME280;56841;55.964;37.674;2023-08-30T10:35:14;99581.97;;;21.67;59.95
69622;BME280;56841;55.964;37.674;2023-08-30T10:37:41;99572.22;;;21.77;59.57
69622;BME280;56841;55.964;37.674;2023-08-30T10:40:07;99574.13;;;22.11;58.71
69622;BME280;56841;55.964;37.674;2023-08-30T10:42:33;99578.13;;;22.25;58.19
69622;BME280;56841;55.964;37.674;2023-08-30T10:45:01;99572.16;;;21.89;58.70
69622;BME280;56841;55.964;37.674;2023-08-30T10:47:33;99572.34;;;21.99;58.10
69622;BME280;56841;55.964;37.674;2023-08-30T10:50:05;99567.75;;;21.83;58.63
69622;BME280;56841;55.964;37.674;2023-08-30T10:52:32;99564.00;;;21.84;58.80
69622;BME280;56841;55.964;37.674;2023-08-30T10:55:11;99569.66;;;21.99;58.59
69622;BME280;56841;55.964;37.674;2023-08-30T10:57:41;99567.28;;;22.03;59.63
69622;BME280;56841;55.964;37.674;2023-08-30T11:02:48;99566.63;;;21.50;61.06
69622;BME280;56841;55.964;37.674;2023-08-30T11:05:21;99568.00;;;21.82;58.95
69622;BME280;56841;55.964;37.674;2023-08-30T11:07:46;99569.31;;;22.13;58.04
69622;BME280;56841;55.964;37.674;2023-08-30T11:10:14;99561.47;;;21.77;59.04
69622;BME280;56841;55.964;37.674;2023-08-30T11:12:43;99560.44;;;21.50;59.87
69622;BME280;56841;55.964;37.674;2023-08-30T11:15:11;99567.72;;;21.26;61.70
69622;BME280;56841;55.964;37.674;2023-08-30T11:17:39;99569.59;;;21.66;60.09
69622;BME280;56841;55.964;37.674;2023-08-30T11:20:12;99568.84;;;21.99;59.08
69622;BME280;56841;55.964;37.674;2023-08-30T11:22:43;99562.13;;;22.01;59.55
69622;BME280;56841;55.964;37.674;2023-08-30T11:25:11;99560.59;;;21.89;58.88
69622;BME280;56841;55.964;37.674;2023-08-30T11:27:38;99559.16;;;22.15;58.61
69622;BME280;56841;55.964;37.674;2023-08-30T11:30:05;99557.31;;;22.15;59.05
69622;BME280;56841;55.964;37.674;2023-08-30T11:32:34;99568.47;;;21.50;60.66
69622;BME280;56841;55.964;37.674;2023-08-30T11:35:01;99559.66;;;21.66;60.18
69622;BME280;56841;55.964;37.674;2023-08-30T11:37:32;99568.03;;;21.70;59.85
69622;BME280;56841;55.964;37.674;2023-08-30T11:39:58;99566.31;;;22.09;58.76
69622;BME280;56841;55.964;37.674;2023-08-30T11:42:25;99567.59;;;22.57;57.75
69622;BME280;56841;55.964;37.674;2023-08-30T11:44:51;99567.38;;;23.20;55.85
69622;BME280;56841;55.964;37.674;2023-08-30T11:47:23;99569.38;;;22.90;56.08
69622;BME280;56841;55.964;37.674;2023-08-30T11:49:49;99569.59;;;22.84;56.22
69622;BME280;56841;55.964;37.674;2023-08-30T11:52:16;99571.63;;;22.77;56.31
69622;BME280;56841;55.964;37.674;2023-08-30T11:54:43;99571.44;;;22.83;56.16
69622;BME280;56841;55.964;37.674;2023-08-30T11:57:10;99574.25;;;22.71;56.63
69622;BME280;56841;55.964;37.674;2023-08-30T11:59:36;99567.63;;;22.79;56.14
69622;BME280;56841;55.964;37.674;2023-08-30T12:02:03;99572.28;;;22.84;56.09
69622;BME280;56841;55.964;37.674;2023-08-30T12:04:30;99572.59;;;22.87;56.33
69622;BME280;56841;55.964;37.674;2023-08-30T12:06:56;99564.56;;;22.70;56.04
69622;BME280;56841;55.964;37.674;2023-08-30T12:09:22;99558.50;;;22.41;57.20
69622;BME280;56841;55.964;37.674;2023-08-30T12:11:51;99554.41;;;22.39;57.13
69622;BME280;56841;55.964;37.674;2023-08-30T12:14:17;99553.84;;;22.54;57.26
69622;BME280;56841;55.964;37.674;2023-08-30T12:16:43;99554.22;;;22.62;56.78
69622;BME280;56841;55.964;37.674;2023-08-30T12:19:11;99550.84;;;22.50;57.21
69622;BME280;56841;55.964;37.674;2023-08-30T12:21:44;99540.25;;;22.43;58.02
69622;BME280;56841;55.964;37.674;2023-08-30T12:24:12;99536.31;;;22.34;58.33
69622;BME280;56841;55.964;37.674;2023-08-30T12:26:38;99520.59;;;21.92;59.38
69622;BME280;56841;55.964;37.674;2023-08-30T12:29:05;99524.50;;;22.18;58.41
69622;BME280;56841;55.964;37.674;2023-08-30T12:31:32;99521.78;;;23.13;56.20
69622;BME280;56841;55.964;37.674;2023-08-30T12:33:58;99515.75;;;24.56;50.73
69622;BME280;56841;55.964;37.674;2023-08-30T12:36:24;99506.66;;;25.71;48.07
69622;BME280;56841;55.964;37.674;2023-08-30T12:38:50;99510.13;;;26.49;46.11
69622;BME280;56841;55.964;37.674;2023-08-30T12:41:16;99501.19;;;27.62;43.62
69622;BME280;56841;55.964;37.674;2023-08-30T12:43:42;99508.03;;;28.47;42.00
69622;BME280;56841;55.964;37.674;2023-08-30T12:46:08;99506.63;;;29.41;39.65
69622;BME280;56841;55.964;37.674;2023-08-30T12:48:34;99497.59;;;30.11;37.69